Time;durP1;ratioP1;P1;durP2;ratioP2;P2;SDS_P1;SDS_P2;PMS_P1;PMS_P2;Temp;Humidity;BMP_temperature;BMP_pressure;BME280_temperature;BME280_humidity;BME280_pressure;Samples;Min_cycle;Max_cycle;Signal;HPM_P1;HPM_P2
2023/12/02 00:01:56;;;;;;;9.10;4.88;;;2.30;99.90;;;;;;5119764;27;20424;-53
2023/12/02 00:04:24;;;;;;;9.25;4.78;;;2.30;99.90;;;;;;5124288;27;20501;-53
2023/12/02 00:06:52;;;;;;;10.55;4.65;;;2.30;99.90;;;;;;5115485;28;20786;-50
2023/12/02 00:09:20;;;;;;;10.73;5.15;;;2.20;99.90;;;;;;5115646;28;20481;-48
2023/12/02 00:11:50;;;;;;;9.70;5.28;;;2.10;99.90;;;;;;5114954;28;20419;-49
2023/12/02 00:14:17;;;;;;;10.52;5.45;;;2.00;99.90;;;;;;5115500;28;20404;-53
2023/12/02 00:16:45;;;;;;;9.40;4.38;;;1.90;99.90;;;;;;5115272;28;20428;-53
2023/12/02 00:19:12;;;;;;;8.57;5.20;;;2.00;99.90;;;;;;5115678;28;20432;-53
2023/12/02 00:21:40;;;;;;;9.73;4.45;;;2.20;99.90;;;;;;5119354;28;20424;-54
2023/12/02 00:24:08;;;;;;;10.13;4.97;;;2.30;99.90;;;;;;5130437;27;20414;-55
2023/12/02 00:26:36;;;;;;;10.52;5.30;;;2.10;99.90;;;;;;5119210;27;20473;-54
2023/12/02 00:29:03;;;;;;;9.13;5.18;;;2.10;99.90;;;;;;5138815;27;20399;-53
2023/12/02 00:31:30;;;;;;;10.80;4.90;;;1.90;99.90;;;;;;5140156;27;20506;-55
2023/12/02 00:33:58;;;;;;;12.15;5.15;;;1.80;99.90;;;;;;5140097;27;20512;-55
2023/12/02 00:36:25;;;;;;;10.80;4.82;;;1.70;99.90;;;;;;5139877;27;20520;-52
2023/12/02 00:38:52;;;;;;;9.27;5.18;;;1.80;99.90;;;;;;5138264;27;20509;-51
2023/12/02 00:41:21;;;;;;;9.82;5.13;;;1.70;99.90;;;;;;5136584;27;20505;-54
2023/12/02 00:43:48;;;;;;;10.50;5.20;;;1.80;99.90;;;;;;5138185;27;20497;-52
2023/12/02 00:46:15;;;;;;;11.05;5.78;;;2.00;99.90;;;;;;5128201;27;20511;-52
2023/12/02 00:48:43;;;;;;;10.50;5.00;;;2.00;99.90;;;;;;5125332;27;20422;-54
2023/12/02 00:51:10;;;;;;;9.63;5.13;;;2.10;99.90;;;;;;5128946;27;20420;-54
2023/12/02 00:53:37;;;;;;;11.93;5.38;;;2.30;99.90;;;;;;5118310;28;20412;-51
2023/12/02 00:56:05;;;;;;;9.90;4.70;;;2.40;99.90;;;;;;5118735;28;20412;-57
2023/12/02 00:58:34;;;;;;;11.45;6.25;;;2.40;99.90;;;;;;5119086;28;20435;-49
2023/12/02 01:01:01;;;;;;;9.30;5.60;;;2.50;99.90;;;;;;5118564;28;20420;-53
2023/12/02 01:03:28;;;;;;;8.70;5.10;;;2.40;99.90;;;;;;5118613;28;20732;-54
2023/12/02 01:05:55;;;;;;;12.70;5.65;;;2.40;99.90;;;;;;5118011;28;20514;-50
2023/12/02 01:08:23;;;;;;;9.75;5.10;;;2.40;99.90;;;;;;5118388;28;20494;-51
2023/12/02 01:10:50;;;;;;;10.77;5.35;;;2.30;99.90;;;;;;5118667;28;20415;-50
2023/12/02 01:13:17;;;;;;;12.02;5.50;;;2.30;99.90;;;;;;5118762;28;20423;-55
2023/12/02 01:15:46;;;;;;;11.85;5.57;;;2.30;99.90;;;;;;5118168;28;20545;-49
2023/12/02 01:18:13;;;;;;;8.77;4.40;;;2.20;99.90;;;;;;5116933;28;20523;-50
2023/12/02 01:20:40;;;;;;;10.55;5.10;;;2.10;99.90;;;;;;5116462;28;20416;-52
2023/12/02 01:23:07;;;;;;;12.97;5.70;;;2.10;99.90;;;;;;5116661;28;20868;-49
2023/12/02 01:25:34;;;;;;;9.55;5.18;;;2.00;99.90;;;;;;5116654;28;20435;-52
2023/12/02 01:28:02;;;;;;;11.00;6.10;;;2.10;99.90;;;;;;5116969;28;20471;-51
2023/12/02 01:30:29;;;;;;;8.80;4.15;;;2.00;99.90;;;;;;5117122;28;20447;-52
2023/12/02 01:32:57;;;;;;;10.30;5.13;;;2.00;99.90;;;;;;5115907;28;20426;-50
2023/12/02 01:35:25;;;;;;;10.88;4.80;;;2.00;99.90;;;;;;5117656;28;20839;-48
2023/12/02 01:37:52;;;;;;;11.27;4.90;;;2.00;99.90;;;;;;5117785;28;20428;-50
2023/12/02 01:40:19;;;;;;;10.27;5.00;;;2.00;99.90;;;;;;5117930;28;20510;-50
2023/12/02 01:42:46;;;;;;;9.77;5.83;;;1.90;99.90;;;;;;5118170;28;20455;-50
2023/12/02 01:45:14;;;;;;;11.70;5.03;;;2.00;99.90;;;;;;5118007;28;20427;-50
2023/12/02 01:47:42;;;;;;;8.13;4.63;;;1.90;99.90;;;;;;5115634;28;20422;-54
2023/12/02 01:50:12;;;;;;;10.57;4.60;;;1.90;99.90;;;;;;5110837;28;20499;-52
2023/12/02 01:52:39;;;;;;;9.27;4.97;;;1.90;99.90;;;;;;5117711;28;20519;-53
2023/12/02 01:55:07;;;;;;;10.15;4.85;;;1.90;99.90;;;;;;5117413;28;20910;-53
2023/12/02 01:57:35;;;;;;;8.18;4.15;;;1.80;99.90;;;;;;5117666;28;20715;-52
2023/12/02 02:00:03;;;;;;;10.82;4.65;;;1.70;99.90;;;;;;5117188;28;20503;-51
2023/12/02 02:02:30;;;;;;;8.13;4.45;;;1.80;99.90;;;;;;5117306;28;20908;-53
2023/12/02 02:04:58;;;;;;;10.77;4.90;;;1.80;99.90;;;;;;5116452;28;20535;-55
2023/12/02 02:07:26;;;;;;;9.20;4.82;;;1.80;99.90;;;;;;5116517;28;20944;-49
2023/12/02 02:09:54;;;;;;;9.60;4.43;;;1.80;99.90;;;;;;5117431;28;20420;-56
2023/12/02 02:12:21;;;;;;;7.55;4.20;;;1.80;99.90;;;;;;5116286;28;20439;-54
2023/12/02 02:14:48;;;;;;;9.53;4.40;;;1.80;99.90;;;;;;5115652;28;20412;-52
2023/12/02 02:17:15;;;;;;;9.43;4.68;;;1.80;99.90;;;;;;5117417;28;20907;-54
2023/12/02 02:19:42;;;;;;;10.98;4.57;;;1.80;99.90;;;;;;5117341;28;20709;-54
2023/12/02 02:22:11;;;;;;;9.98;5.03;;;1.80;99.90;;;;;;5117087;28;20459;-55
2023/12/02 02:24:40;;;;;;;9.48;4.47;;;1.80;99.90;;;;;;5116689;28;20485;-55
2023/12/02 02:27:07;;;;;;;10.40;4.88;;;1.80;99.90;;;;;;5116294;28;20424;-54
2023/12/02 02:29:34;;;;;;;10.43;4.80;;;1.80;99.90;;;;;;5116965;28;20499;-51
2023/12/02 02:32:02;;;;;;;10.27;4.55;;;1.80;99.90;;;;;;5117079;28;20420;-53
2023/12/02 02:34:29;;;;;;;7.35;3.60;;;1.70;99.90;;;;;;5115981;28;20412;-52
2023/12/02 02:36:56;;;;;;;9.90;4.60;;;1.70;99.90;;;;;;5117124;28;20931;-55
2023/12/02 02:39:25;;;;;;;8.35;4.30;;;1.80;99.90;;;;;;5116854;28;20436;-52
2023/12/02 02:41:54;;;;;;;8.27;4.03;;;1.70;99.90;;;;;;5116645;28;20499;-53
2023/12/02 02:44:21;;;;;;;8.30;4.53;;;1.70;99.90;;;;;;5116699;28;20419;-53
2023/12/02 02:46:48;;;;;;;9.85;4.30;;;1.60;99.90;;;;;;5116630;28;20874;-53
2023/12/02 02:49:15;;;;;;;10.43;5.10;;;1.70;99.90;;;;;;5116212;28;20863;-53
2023/12/02 02:51:43;;;;;;;8.55;4.00;;;1.80;99.90;;;;;;5116277;28;20832;-50
2023/12/02 02:54:10;;;;;;;7.35;3.67;;;1.80;99.90;;;;;;5116271;28;20426;-51
2023/12/02 02:56:38;;;;;;;9.45;4.72;;;1.80;99.90;;;;;;5115858;28;20491;-50
2023/12/02 02:59:06;;;;;;;9.68;4.25;;;1.80;99.90;;;;;;5115790;28;20438;-53
2023/12/02 03:01:33;;;;;;;8.25;3.33;;;1.80;99.90;;;;;;5116207;28;20420;-53
2023/12/02 03:04:00;;;;;;;9.80;4.10;;;1.70;99.90;;;;;;5116150;28;20503;-53
2023/12/02 03:06:27;;;;;;;8.15;4.05;;;1.80;99.90;;;;;;5116129;28;20855;-51
2023/12/02 03:08:54;;;;;;;9.43;4.40;;;1.70;99.90;;;;;;5115595;28;20420;-49
2023/12/02 03:11:22;;;;;;;6.38;3.75;;;1.80;99.90;;;;;;5116044;28;20849;-50
2023/12/02 03:13:50;;;;;;;8.73;4.20;;;1.90;99.90;;;;;;5116115;28;20720;-52
2023/12/02 03:16:17;;;;;;;8.45;3.85;;;1.80;99.90;;;;;;5116016;28;20416;-53
2023/12/02 03:18:45;;;;;;;7.80;3.53;;;1.90;99.90;;;;;;5115844;28;20432;-53
2023/12/02 03:21:12;;;;;;;8.50;3.80;;;1.70;99.90;;;;;;5115585;28;20715;-54
2023/12/02 03:23:39;;;;;;;8.20;4.15;;;1.70;99.90;;;;;;5115749;28;20454;-56
2023/12/02 03:26:07;;;;;;;6.85;3.83;;;1.60;99.90;;;;;;5115482;28;20412;-55
2023/12/02 03:28:34;;;;;;;8.70;4.40;;;1.70;99.90;;;;;;5116195;28;20423;-51
2023/12/02 03:31:03;;;;;;;10.05;4.60;;;1.60;99.90;;;;;;5115311;28;20948;-51
2023/12/02 03:33:31;;;;;;;8.32;3.65;;;1.60;99.90;;;;;;5115688;28;20424;-55
2023/12/02 03:35:58;;;;;;;10.00;4.18;;;1.50;99.90;;;;;;5115555;28;20481;-49
2023/12/02 03:38:25;;;;;;;8.32;3.53;;;1.40;99.90;;;;;;5115530;28;20428;-51
2023/12/02 03:40:52;;;;;;;6.85;3.40;;;1.40;99.90;;;;;;5115950;28;20515;-50
2023/12/02 03:43:19;;;;;;;9.05;4.07;;;1.40;99.90;;;;;;5116052;28;20485;-50
2023/12/02 03:45:47;;;;;;;9.27;3.78;;;1.40;99.90;;;;;;5115151;28;20416;-51
2023/12/02 03:48:16;;;;;;;9.90;4.27;;;1.60;99.90;;;;;;5115636;28;20709;-51
2023/12/02 03:50:43;;;;;;;8.73;4.20;;;1.50;99.90;;;;;;5115087;28;20507;-51
2023/12/02 03:53:10;;;;;;;7.97;3.73;;;1.50;99.90;;;;;;5115189;28;20794;-53
2023/12/02 03:55:37;;;;;;;9.85;4.00;;;1.60;99.90;;;;;;5114539;28;20459;-55
2023/12/02 03:58:04;;;;;;;10.95;4.63;;;1.60;99.90;;;;;;5115214;28;20514;-52
2023/12/02 04:00:32;;;;;;;9.85;3.70;;;1.60;99.90;;;;;;5115442;28;20412;-55
2023/12/02 04:03:00;;;;;;;8.02;3.30;;;1.70;99.90;;;;;;5115519;28;20430;-50
2023/12/02 04:05:28;;;;;;;9.75;4.05;;;1.70;99.90;;;;;;5115689;28;20857;-51
2023/12/02 04:07:55;;;;;;;7.97;3.77;;;1.70;99.90;;;;;;5115166;28;20519;-51
2023/12/02 04:10:22;;;;;;;7.20;2.40;;;1.60;99.90;;;;;;5115319;28;20420;-54
2023/12/02 04:12:50;;;;;;;5.80;2.42;;;1.60;99.90;;;;;;5115183;28;20446;-51
2023/12/02 04:15:17;;;;;;;6.72;2.78;;;1.60;99.90;;;;;;5115263;28;20488;-50
2023/12/02 04:17:44;;;;;;;7.45;3.38;;;1.50;99.90;;;;;;5115008;28;20430;-51
2023/12/02 04:20:15;;;;;;;7.43;3.30;;;1.60;99.90;;;;;;5115126;28;20512;-51
2023/12/02 04:22:43;;;;;;;5.18;2.53;;;1.50;99.90;;;;;;5115594;28;20429;-55
2023/12/02 04:25:11;;;;;;;5.23;2.40;;;1.60;99.90;;;;;;5115449;28;20530;-52
2023/12/02 04:27:38;;;;;;;7.00;2.50;;;1.70;99.90;;;;;;5115181;28;20518;-53
2023/12/02 04:30:06;;;;;;;5.90;2.10;;;1.60;99.90;;;;;;5115076;28;20753;-54
2023/12/02 04:32:33;;;;;;;6.57;2.40;;;1.40;99.90;;;;;;5115153;28;20545;-54
2023/12/02 04:35:01;;;;;;;6.88;3.42;;;1.40;99.90;;;;;;5115189;28;20419;-53
2023/12/02 04:37:28;;;;;;;5.65;3.00;;;1.40;99.90;;;;;;5115030;28;20430;-50
2023/12/02 04:39:56;;;;;;;4.80;2.25;;;1.60;99.90;;;;;;5114600;28;20570;-55
2023/12/02 04:42:24;;;;;;;4.22;2.05;;;1.60;99.90;;;;;;5115017;28;20424;-55
2023/12/02 04:44:51;;;;;;;7.13;2.33;;;1.50;99.90;;;;;;5114772;28;20452;-48
2023/12/02 04:47:18;;;;;;;3.47;1.40;;;1.50;99.90;;;;;;5114825;28;20499;-49
2023/12/02 04:49:46;;;;;;;3.30;1.60;;;1.50;99.90;;;;;;5114195;28;20426;-53
2023/12/02 04:52:13;;;;;;;4.30;1.70;;;1.50;99.90;;;;;;5114387;28;20514;-55
2023/12/02 04:54:42;;;;;;;6.20;2.60;;;1.40;99.90;;;;;;5112884;28;21343;-52
2023/12/02 04:57:11;;;;;;;4.88;2.03;;;1.40;99.90;;;;;;5114231;28;20422;-55
2023/12/02 04:59:38;;;;;;;5.68;1.80;;;1.40;99.90;;;;;;5113099;28;20424;-53
2023/12/02 05:02:06;;;;;;;5.90;1.90;;;1.30;99.90;;;;;;5113926;28;20448;-54
2023/12/02 05:04:33;;;;;;;5.97;2.08;;;1.30;99.90;;;;;;5114051;28;20428;-55
2023/12/02 05:07:01;;;;;;;5.35;2.30;;;1.30;99.90;;;;;;5117004;28;20424;-52
2023/12/02 05:09:29;;;;;;;6.32;2.35;;;1.30;99.90;;;;;;5118654;28;20862;-53
2023/12/02 05:11:56;;;;;;;4.90;2.15;;;1.40;99.90;;;;;;5118325;28;20435;-54
2023/12/02 05:14:25;;;;;;;5.67;2.17;;;1.30;99.90;;;;;;5117116;28;20480;-53
2023/12/02 05:16:52;;;;;;;5.95;2.33;;;1.30;99.90;;;;;;5117042;28;20495;-51
2023/12/02 05:19:19;;;;;;;7.20;2.43;;;1.20;99.90;;;;;;5116826;28;20493;-51
2023/12/02 05:21:46;;;;;;;3.60;1.80;;;1.30;99.90;;;;;;5117049;28;20511;-53
2023/12/02 05:24:14;;;;;;;4.45;1.90;;;1.30;99.90;;;;;;5116263;28;20420;-50
2023/12/02 05:26:41;;;;;;;2.95;1.73;;;1.40;99.90;;;;;;5117519;28;20420;-49
2023/12/02 05:29:08;;;;;;;4.30;1.98;;;1.30;99.90;;;;;;5118137;28;20412;-50
2023/12/02 05:31:38;;;;;;;4.38;1.90;;;1.30;99.90;;;;;;5118417;28;20420;-52
2023/12/02 05:34:06;;;;;;;5.18;2.58;;;1.40;99.90;;;;;;5118324;28;20423;-52
2023/12/02 05:36:33;;;;;;;5.20;2.20;;;1.40;99.90;;;;;;5116228;28;20420;-50
2023/12/02 05:39:00;;;;;;;5.30;2.15;;;1.30;99.90;;;;;;5117470;28;20432;-53
2023/12/02 05:41:27;;;;;;;4.00;1.97;;;1.10;99.90;;;;;;5117272;28;20805;-48
2023/12/02 05:43:54;;;;;;;6.60;2.30;;;1.10;99.90;;;;;;5117717;28;20836;-51
2023/12/02 05:46:22;;;;;;;5.93;2.10;;;0.90;99.90;;;;;;5117463;28;20718;-53
2023/12/02 05:48:50;;;;;;;5.10;2.08;;;0.90;99.90;;;;;;5117634;28;20430;-52
2023/12/02 05:51:18;;;;;;;4.57;2.20;;;1.00;99.90;;;;;;5118252;28;20719;-49
2023/12/02 05:53:45;;;;;;;5.70;2.20;;;1.00;99.90;;;;;;5117565;28;20776;-53
2023/12/02 05:56:12;;;;;;;5.32;2.20;;;1.00;99.90;;;;;;5117892;28;20878;-51
2023/12/02 05:58:39;;;;;;;6.40;2.20;;;1.10;99.90;;;;;;5117805;28;20426;-55
2023/12/02 06:01:07;;;;;;;4.80;1.90;;;1.20;99.90;;;;;;5117548;28;20474;-54
2023/12/02 06:03:34;;;;;;;5.20;1.80;;;1.20;99.90;;;;;;5117699;28;20763;-55
2023/12/02 06:06:03;;;;;;;4.40;1.60;;;1.20;99.90;;;;;;5117301;28;20879;-52
2023/12/02 06:08:30;;;;;;;6.50;2.03;;;1.20;99.90;;;;;;5117311;28;20835;-48
2023/12/02 06:10:57;;;;;;;4.40;1.90;;;1.20;99.90;;;;;;5117271;28;20423;-48
2023/12/02 06:13:24;;;;;;;3.70;1.98;;;1.30;99.90;;;;;;5117120;28;20519;-52
2023/12/02 06:15:51;;;;;;;5.15;2.40;;;1.30;99.90;;;;;;5117419;28;20426;-49
2023/12/02 06:18:18;;;;;;;3.23;1.73;;;1.30;99.90;;;;;;5116547;28;20557;-48
2023/12/02 06:20:46;;;;;;;5.65;2.00;;;1.30;99.90;;;;;;5116580;28;20435;-49
2023/12/02 06:23:14;;;;;;;5.65;2.35;;;1.10;99.90;;;;;;5116800;28;20455;-49
2023/12/02 06:25:42;;;;;;;4.80;2.13;;;1.00;99.90;;;;;;5115402;28;20828;-53
2023/12/02 06:28:09;;;;;;;5.40;1.80;;;1.20;99.90;;;;;;5115582;28;20446;-49
2023/12/02 06:30:36;;;;;;;4.17;1.73;;;1.30;99.90;;;;;;5115571;28;20865;-52
2023/12/02 06:33:03;;;;;;;4.30;1.95;;;1.20;99.90;;;;;;5115480;28;20570;-52
2023/12/02 06:35:30;;;;;;;4.40;2.10;;;1.10;99.90;;;;;;5114942;28;20404;-52
2023/12/02 06:37:57;;;;;;;3.80;1.70;;;1.10;99.90;;;;;;5115591;28;20416;-50
2023/12/02 06:40:26;;;;;;;3.97;1.80;;;1.20;99.90;;;;;;5116725;28;20432;-49
2023/12/02 06:42:53;;;;;;;5.35;2.65;;;1.20;99.90;;;;;;5116927;28;20428;-49
2023/12/02 06:45:21;;;;;;;4.38;1.98;;;1.00;99.90;;;;;;5115766;28;20420;-50
2023/12/02 06:47:48;;;;;;;5.65;2.50;;;1.10;99.90;;;;;;5114675;28;20774;-51
2023/12/02 06:50:15;;;;;;;5.57;2.23;;;1.00;99.90;;;;;;5115702;28;20488;-50
2023/12/02 06:52:42;;;;;;;5.40;2.20;;;1.00;99.90;;;;;;5115483;28;20416;-47
2023/12/02 06:55:10;;;;;;;5.28;2.10;;;1.10;99.90;;;;;;5114831;28;20611;-48
2023/12/02 06:57:38;;;;;;;5.40;2.17;;;1.00;99.90;;;;;;5114621;28;20423;-47
2023/12/02 07:00:09;;;;;;;5.18;1.90;;;1.00;99.90;;;;;;5115794;28;20435;-47
2023/12/02 07:02:38;;;;;;;4.63;2.30;;;0.90;99.90;;;;;;5115414;28;20836;-48
2023/12/02 07:05:06;;;;;;;5.72;1.98;;;0.80;99.90;;;;;;5115803;28;20502;-47
2023/12/02 07:07:33;;;;;;;4.45;1.90;;;0.70;99.90;;;;;;5114710;28;20837;-48
2023/12/02 07:10:00;;;;;;;6.00;2.10;;;0.60;99.90;;;;;;5114317;28;20844;-49
2023/12/02 07:12:27;;;;;;;4.53;1.60;;;0.70;99.90;;;;;;5114083;28;20760;-53
2023/12/02 07:14:56;;;;;;;6.00;2.25;;;0.80;99.90;;;;;;5114122;28;20438;-51
2023/12/02 07:17:23;;;;;;;6.20;2.60;;;0.60;99.90;;;;;;5113491;28;20412;-50
2023/12/02 07:19:50;;;;;;;5.68;2.35;;;0.70;99.90;;;;;;5114864;28;20435;-52
2023/12/02 07:22:17;;;;;;;5.20;2.37;;;0.70;99.90;;;;;;5115435;28;20906;-51
2023/12/02 07:24:45;;;;;;;4.20;2.30;;;0.70;99.90;;;;;;5115712;28;20416;-49
2023/12/02 07:27:12;;;;;;;6.30;2.58;;;0.60;99.90;;;;;;5116183;28;20420;-52
2023/12/02 07:29:39;;;;;;;5.47;2.40;;;0.70;99.90;;;;;;5109177;28;20407;-48
2023/12/02 07:32:08;;;;;;;4.70;2.15;;;0.70;99.90;;;;;;5111693;28;20412;-53
2023/12/02 07:34:35;;;;;;;4.55;1.92;;;0.70;99.90;;;;;;5114023;28;20515;-49
2023/12/02 07:37:02;;;;;;;6.35;2.60;;;0.70;99.90;;;;;;5114901;28;20427;-46
2023/12/02 07:39:30;;;;;;;7.18;2.67;;;0.60;99.90;;;;;;5115081;28;20816;-46
2023/12/02 07:41:57;;;;;;;8.73;3.50;;;0.70;99.90;;;;;;5114886;28;20730;-49
2023/12/02 07:44:27;;;;;;;8.50;3.95;;;0.90;99.90;;;;;;5115546;28;20865;-49
2023/12/02 07:46:54;;;;;;;7.85;2.88;;;0.90;99.90;;;;;;5114403;28;20689;-48
2023/12/02 07:49:23;;;;;;;5.43;2.97;;;0.80;99.90;;;;;;5113772;28;20519;-51
2023/12/02 07:51:50;;;;;;;5.30;2.50;;;0.90;99.90;;;;;;5114737;28;20770;-52
2023/12/02 07:54:17;;;;;;;6.60;2.80;;;1.00;99.90;;;;;;5114185;28;20478;-47
2023/12/02 07:56:45;;;;;;;6.20;2.63;;;1.00;99.90;;;;;;5115495;28;20446;-51
2023/12/02 07:59:12;;;;;;;5.97;2.22;;;1.10;99.90;;;;;;5114407;28;20456;-46
2023/12/02 08:01:39;;;;;;;5.28;2.42;;;1.10;99.90;;;;;;5114421;28;20432;-49
2023/12/02 08:04:07;;;;;;;5.35;2.55;;;0.90;99.90;;;;;;5104756;28;20426;-52
2023/12/02 08:06:36;;;;;;;6.38;2.60;;;1.00;99.90;;;;;;5115078;28;20420;-49
2023/12/02 08:09:04;;;;;;;8.07;2.72;;;0.90;99.90;;;;;;5115167;28;20420;-52
2023/12/02 08:11:31;;;;;;;5.33;2.30;;;0.90;99.90;;;;;;5115185;28;20437;-46
2023/12/02 08:13:58;;;;;;;6.47;2.90;;;1.00;99.90;;;;;;5112984;28;20503;-49
2023/12/02 08:16:25;;;;;;;5.82;2.78;;;1.10;99.90;;;;;;5114591;28;20452;-47
2023/12/02 08:18:53;;;;;;;5.50;2.17;;;1.10;99.90;;;;;;5114104;28;20518;-49
2023/12/02 08:21:20;;;;;;;3.60;1.83;;;1.10;99.90;;;;;;5112975;28;20498;-50
2023/12/02 08:23:48;;;;;;;4.25;2.80;;;1.20;99.90;;;;;;5113643;28;20455;-48
2023/12/02 08:26:15;;;;;;;6.00;2.10;;;1.20;99.90;;;;;;5114450;28;20491;-49
2023/12/02 08:28:46;;;;;;;4.90;2.80;;;1.00;99.90;;;;;;5114764;28;20714;-47
2023/12/02 08:31:13;;;;;;;4.87;2.20;;;0.80;99.90;;;;;;5115635;28;20416;-48
2023/12/02 08:33:40;;;;;;;7.25;3.20;;;0.90;99.90;;;;;;5115437;28;20481;-51
2023/12/02 08:36:08;;;;;;;5.32;2.55;;;0.90;99.90;;;;;;5115561;28;20789;-50
2023/12/02 08:38:35;;;;;;;6.20;2.70;;;0.80;99.90;;;;;;5112079;28;20438;-51
2023/12/02 08:41:04;;;;;;;6.65;2.75;;;0.70;99.90;;;;;;5115514;28;20428;-48
2023/12/02 08:43:31;;;;;;;6.63;3.40;;;0.80;99.90;;;;;;5118217;28;20419;-47
2023/12/02 08:45:58;;;;;;;7.20;3.05;;;0.90;99.90;;;;;;5118143;28;20853;-53
2023/12/02 08:48:26;;;;;;;7.85;3.88;;;1.00;99.90;;;;;;5118472;28;20419;-46
2023/12/02 08:50:53;;;;;;;7.25;2.90;;;0.90;99.90;;;;;;5118464;28;20428;-48
2023/12/02 08:53:20;;;;;;;7.03;2.92;;;1.10;99.90;;;;;;5118463;28;20816;-46
2023/12/02 08:55:47;;;;;;;6.07;3.33;;;1.00;99.90;;;;;;5114971;28;20435;-47
2023/12/02 08:58:16;;;;;;;7.45;2.97;;;0.90;99.90;;;;;;5118403;28;20921;-48
2023/12/02 09:00:42;;;;;;;8.05;3.58;;;0.90;99.90;;;;;;5117788;28;20431;-45
2023/12/02 09:03:10;;;;;;;4.60;2.70;;;0.90;99.90;;;;;;5118417;28;20714;-47
2023/12/02 09:05:37;;;;;;;4.65;2.72;;;0.80;99.90;;;;;;5117634;28;20472;-47
2023/12/02 09:08:04;;;;;;;4.97;2.60;;;0.70;99.90;;;;;;5118084;28;20422;-45
2023/12/02 09:10:32;;;;;;;4.70;1.65;;;0.80;99.90;;;;;;5117043;28;20450;-45
2023/12/02 09:12:59;;;;;;;5.75;2.20;;;0.90;99.90;;;;;;5117155;28;20515;-46
2023/12/02 09:15:41;;;;;;;5.78;2.20;;;0.80;99.90;;;;;;5117933;28;20456;-45
2023/12/02 09:18:10;;;;;;;5.20;2.28;;;0.90;99.90;;;;;;5116759;28;20443;-60
2023/12/02 09:20:49;;;;;;;5.40;2.20;;;0.90;99.90;;;;;;5117677;28;20507;-54
2023/12/02 09:23:17;;;;;;;5.47;2.30;;;0.70;99.90;;;;;;5117684;28;20952;-52
2023/12/02 09:25:45;;;;;;;6.85;2.60;;;0.60;99.90;;;;;;5116209;28;20416;-56
2023/12/02 09:28:26;;;;;;;5.55;2.75;;;0.70;99.90;;;;;;5116461;28;20511;-56
2023/12/02 09:31:02;;;;;;;4.93;2.40;;;0.80;99.90;;;;;;5117054;28;20428;-56
2023/12/02 09:33:30;;;;;;;5.50;2.50;;;0.90;99.90;;;;;;5116495;28;20424;-56
2023/12/02 09:35:58;;;;;;;5.50;2.15;;;0.90;99.90;;;;;;5115848;28;20771;-55
2023/12/02 09:38:29;;;;;;;4.43;2.10;;;0.90;99.90;;;;;;5115960;28;20964;-56
2023/12/02 09:41:14;;;;;;;4.18;1.80;;;0.90;99.90;;;;;;5117811;28;20892;-55
2023/12/02 09:43:55;;;;;;;3.72;1.90;;;0.80;99.90;;;;;;5114751;28;20507;-56
2023/12/02 09:46:34;;;;;;;5.10;2.58;;;0.50;99.90;;;;;;5115034;28;20427;-54
2023/12/02 09:49:34;;;;;;;6.30;3.00;;;0.70;99.90;;;;;;5114954;28;20420;-54
2023/12/02 09:52:25;;;;;;;5.50;2.10;;;0.80;99.90;;;;;;5113302;28;20504;-54
2023/12/02 09:54:59;;;;;;;4.85;2.40;;;0.90;99.90;;;;;;5114966;28;20859;-55
2023/12/02 09:57:34;;;;;;;5.65;2.20;;;1.00;99.90;;;;;;5114034;28;20427;-56
2023/12/02 10:00:09;;;;;;;5.20;2.38;;;0.90;99.90;;;;;;5115539;28;20416;-58
2023/12/02 10:02:52;;;;;;;5.78;2.70;;;0.80;99.90;;;;;;5115409;28;20416;-51
2023/12/02 10:05:19;;;;;;;6.53;2.90;;;1.00;99.90;;;;;;5115769;28;20506;-56
2023/12/02 10:08:05;;;;;;;6.57;2.20;;;1.10;99.90;;;;;;5112907;28;20430;-56
2023/12/02 10:10:42;;;;;;;4.90;2.40;;;1.10;99.90;;;;;;5108763;28;20866;-55
2023/12/02 10:13:20;;;;;;;5.20;2.70;;;1.10;99.90;;;;;;5115546;28;20424;-53
2023/12/02 10:15:49;;;;;;;5.78;2.50;;;0.80;99.90;;;;;;5117198;28;20719;-55
2023/12/02 10:18:22;;;;;;;4.73;2.37;;;0.90;99.90;;;;;;5116269;28;20420;-56
2023/12/02 10:21:01;;;;;;;4.10;1.83;;;0.90;99.90;;;;;;5115126;28;20459;-56
2023/12/02 10:23:37;;;;;;;5.80;2.50;;;0.90;99.90;;;;;;5117081;28;20444;-54
2023/12/02 10:26:09;;;;;;;4.03;2.00;;;0.80;99.90;;;;;;5115678;28;20415;-53
2023/12/02 10:28:51;;;;;;;5.53;2.07;;;0.90;99.90;;;;;;5115334;28;20586;-57
2023/12/02 10:31:25;;;;;;;4.07;1.73;;;0.90;99.90;;;;;;5116771;28;20423;-51
2023/12/02 10:34:03;;;;;;;3.75;1.92;;;0.80;99.90;;;;;;5116639;28;21019;-54
2023/12/02 10:36:34;;;;;;;5.60;2.20;;;0.90;99.90;;;;;;5114416;28;20515;-56
2023/12/02 10:39:09;;;;;;;5.10;2.60;;;0.80;99.90;;;;;;5114788;28;20427;-56
2023/12/02 10:41:46;;;;;;;3.80;1.92;;;0.90;99.90;;;;;;5114538;28;20510;-56
2023/12/02 10:44:16;;;;;;;6.40;2.20;;;0.90;99.90;;;;;;5115330;28;20448;-55
2023/12/02 10:46:45;;;;;;;5.13;2.43;;;1.00;99.90;;;;;;5106526;28;20517;-54
2023/12/02 10:49:14;;;;;;;5.53;2.20;;;1.00;99.90;;;;;;5115560;28;20750;-56
2023/12/02 10:51:43;;;;;;;5.70;2.58;;;0.90;99.90;;;;;;5113961;28;20416;-56
2023/12/02 10:54:13;;;;;;;3.90;1.65;;;0.80;99.90;;;;;;5113455;28;20419;-56
2023/12/02 10:56:41;;;;;;;6.13;2.30;;;0.80;99.90;;;;;;5114444;28;20509;-55
2023/12/02 10:59:10;;;;;;;3.70;2.08;;;0.90;99.90;;;;;;5114704;28;20416;-55
2023/12/02 11:01:40;;;;;;;6.22;1.83;;;0.80;99.90;;;;;;5114884;28;20434;-57
2023/12/02 11:04:21;;;;;;;4.80;1.70;;;0.80;99.90;;;;;;5114408;28;20511;-60
2023/12/02 11:06:52;;;;;;;5.70;2.17;;;0.80;99.90;;;;;;5114091;28;20820;-56
2023/12/02 11:09:32;;;;;;;5.35;1.90;;;0.80;99.90;;;;;;5114500;28;20412;-56
2023/12/02 11:12:04;;;;;;;6.70;1.97;;;0.80;99.90;;;;;;5114551;28;20434;-57
2023/12/02 11:14:39;;;;;;;5.28;2.20;;;0.90;99.90;;;;;;5113600;28;20420;-57
2023/12/02 11:17:17;;;;;;;5.55;2.72;;;0.90;99.90;;;;;;5112454;28;20417;-53
2023/12/02 11:20:08;;;;;;;5.10;2.22;;;1.00;99.90;;;;;;5114508;28;20519;-57
2023/12/02 11:22:52;;;;;;;4.38;2.30;;;1.10;99.90;;;;;;5115489;28;20428;-55
2023/12/02 11:25:29;;;;;;;6.90;2.10;;;1.10;99.90;;;;;;5114882;28;20859;-55
2023/12/02 11:28:03;;;;;;;4.15;2.00;;;1.10;99.90;;;;;;5111410;28;20481;-57
2023/12/02 11:30:49;;;;;;;4.63;2.38;;;1.10;99.90;;;;;;5102174;28;20435;-57
2023/12/02 11:33:24;;;;;;;5.10;2.25;;;1.10;99.90;;;;;;5112387;28;20408;-57
2023/12/02 11:36:04;;;;;;;4.80;2.10;;;0.70;99.90;;;;;;5104098;28;20433;-56
2023/12/02 11:38:33;;;;;;;5.10;2.30;;;0.50;99.90;;;;;;5093534;28;20957;-57
2023/12/02 11:41:15;;;;;;;4.40;2.22;;;0.50;99.90;;;;;;5108751;28;20435;-54
2023/12/02 11:43:55;;;;;;;5.10;2.22;;;0.50;99.90;;;;;;5094741;28;20457;-56
2023/12/02 11:46:26;;;;;;;4.47;1.90;;;0.40;99.90;;;;;;5107456;28;20429;-52
2023/12/02 11:49:03;;;;;;;5.35;2.80;;;0.50;99.90;;;;;;5111205;28;20444;-56
2023/12/02 11:51:47;;;;;;;3.70;1.80;;;0.60;99.90;;;;;;5101298;28;20423;-52
2023/12/02 11:54:29;;;;;;;3.10;1.60;;;0.60;99.90;;;;;;5104067;28;20428;-56
2023/12/02 11:57:20;;;;;;;6.27;2.10;;;0.80;99.90;;;;;;5114051;28;20894;-56
2023/12/02 12:00:06;;;;;;;3.30;1.70;;;1.00;99.90;;;;;;5113378;28;20413;-57
2023/12/02 12:02:52;;;;;;;3.78;1.88;;;1.00;99.90;;;;;;5114204;28;20424;-56
2023/12/02 12:05:35;;;;;;;3.38;1.40;;;1.10;99.90;;;;;;5109780;28;20428;-56
2023/12/02 12:08:12;;;;;;;5.85;1.50;;;1.00;99.90;;;;;;5111888;28;20483;-57
2023/12/02 12:10:41;;;;;;;2.20;1.10;;;0.90;99.90;;;;;;5112812;27;20441;-54
2023/12/02 12:13:12;;;;;;;2.30;1.10;;;0.80;99.90;;;;;;5094253;28;20421;-56
2023/12/02 12:15:39;;;;;;;2.70;1.10;;;0.70;99.90;;;;;;5092864;28;20478;-57
2023/12/02 12:18:08;;;;;;;3.60;0.93;;;0.70;99.90;;;;;;5093767;28;20432;-57
2023/12/02 12:20:36;;;;;;;2.67;1.23;;;0.70;99.90;;;;;;5094336;28;20421;-55
2023/12/02 12:23:07;;;;;;;2.92;1.52;;;0.60;99.90;;;;;;5100733;28;20428;-54
2023/12/02 12:25:36;;;;;;;5.80;2.90;;;0.50;99.90;;;;;;5113454;28;20601;-54
2023/12/02 12:28:04;;;;;;;3.40;1.60;;;0.50;99.90;;;;;;5113083;28;20539;-52
2023/12/02 12:30:43;;;;;;;2.45;1.17;;;0.60;99.90;;;;;;5114801;28;20453;-54
2023/12/02 12:33:12;;;;;;;4.03;1.60;;;0.80;99.90;;;;;;5113876;28;20520;-53
2023/12/02 12:35:39;;;;;;;3.42;1.52;;;0.80;99.90;;;;;;5114002;28;20820;-53
2023/12/02 12:38:09;;;;;;;2.50;1.10;;;1.00;99.90;;;;;;5113686;28;20412;-53
2023/12/02 12:40:37;;;;;;;2.88;1.17;;;0.90;99.90;;;;;;5113856;28;20423;-51
2023/12/02 12:43:04;;;;;;;2.72;1.23;;;0.80;99.90;;;;;;5113878;28;20432;-52
2023/12/02 12:45:33;;;;;;;3.53;1.45;;;0.60;99.90;;;;;;5114660;28;20481;-53
2023/12/02 12:48:01;;;;;;;3.17;1.23;;;0.70;99.90;;;;;;5113665;28;20420;-54
2023/12/02 12:50:31;;;;;;;3.25;1.40;;;0.80;99.90;;;;;;5111860;28;20465;-52
2023/12/02 12:53:06;;;;;;;3.25;1.27;;;0.70;99.90;;;;;;5114041;28;20448;-51
2023/12/02 12:55:38;;;;;;;3.45;1.60;;;0.60;99.90;;;;;;5114049;28;20423;-52
2023/12/02 12:58:08;;;;;;;2.55;1.30;;;0.40;99.90;;;;;;5114702;28;20424;-50
2023/12/02 13:00:39;;;;;;;2.58;1.50;;;0.40;99.90;;;;;;5103531;28;20526;-56
2023/12/02 13:03:27;;;;;;;4.97;1.70;;;0.40;99.90;;;;;;5112160;28;20467;-50
2023/12/02 13:06:10;;;;;;;2.83;1.40;;;0.50;99.90;;;;;;5113235;28;20917;-53
2023/12/02 13:08:46;;;;;;;2.20;1.20;;;0.50;99.90;;;;;;5109911;28;20760;-55